This is the latest recevied weather packets stored in our database for station/object IW2LSY-11. If no packets are shown the sender has not sent any weather packets the latest 10 day(s).
| Time | Temp. | Humidity | Pressure | Rain* | Wind** | Luminosity | Snow |
|---|---|---|---|---|---|---|---|
| 1777880407 | 20.56° C | 37% | 1018.2 hPa | - | - | 457 W/m² | - |
| 1777879808 | 20.56° C | 37% | 1018.2 hPa | - | - | 458 W/m² | - |
| 1777879208 | 19.44° C | 38% | 1018.1 hPa | - | - | 460 W/m² | - |
| 1777878609 | 21.11° C | 35% | 1018.1 hPa | - | - | 460 W/m² | - |
| 1777878010 | 20.56° C | 37% | 1018.2 hPa | - | - | 460 W/m² | - |
| 1777877410 | 16.67° C | 46% | 1018.3 hPa | - | - | 460 W/m² | - |
| 1777876810 | 18.33° C | 44% | 1018.3 hPa | - | - | 461 W/m² | - |
| 1777876211 | 17.78° C | 45% | 1018 hPa | - | - | 461 W/m² | - |
| 1777875611 | 15.56° C | 49% | 1017.9 hPa | - | - | 461 W/m² | - |
| 1777875012 | 14.44° C | 55% | 1018 hPa | - | - | 463 W/m² | - |
| 1777874412 | 13.33° C | 57% | 1018.1 hPa | - | - | 463 W/m² | - |
| 1777873813 | 13.89° C | 58% | 1018 hPa | - | - | 463 W/m² | - |
| 1777873213 | 12.78° C | 62% | 1018.1 hPa | - | - | 463 W/m² | - |
| 1777872614 | 12.78° C | 61% | 1018.1 hPa | - | - | 465 W/m² | - |
| 1777872014 | 12.22° C | 62% | 1018 hPa | - | - | 466 W/m² | - |
| 1777871414 | 12.78° C | 63% | 1017.9 hPa | - | - | 466 W/m² | - |
| 1777870815 | 12.22° C | 66% | 1017.8 hPa | - | - | 468 W/m² | - |
| 1777870204 | 12.22° C | 66% | 1017.9 hPa | - | - | 468 W/m² | - |
| 1777869604 | 11.67° C | 68% | 1018 hPa | - | - | 467 W/m² | - |
| 1777869005 | 11.11° C | 70% | 1018 hPa | - | - | 468 W/m² | - |
| 1777868405 | 11.67° C | 68% | 1017.9 hPa | - | - | 468 W/m² | - |
| 1777867805 | 11.67° C | 68% | 1017.9 hPa | - | - | 468 W/m² | - |
| 1777867205 | 11.67° C | 69% | 1017.9 hPa | - | - | 469 W/m² | - |
| 1777866605 | 12.22° C | 65% | 1017.8 hPa | - | - | 470 W/m² | - |
| 1777866006 | 12.22° C | 64% | 1017.8 hPa | - | - | 471 W/m² | - |
* Rain since midnight (hover to see other rain measurements)
** Current wind speed in m/s (hover to see current wind gust speed)